Kinross, Iowa
Current Conditions -  °F | °C
As of 2:15 AM on Friday 24 Oct 2014 (Local Time) from KOOA Reporting Station
Light Rain Light Rain  
Wind Chill: 46°   Ceiling: 100
Heat Index: 46°   Visibility: 0mi
Dew Point: 46°   Wind: 3mph
Humidity: 97%   Direction: 180°S
Pressure: 30.05"   Gusts: NA
Location:  41.4707°N, 92.1243°W
Report Text: KOOA 240715Z AUTO 18003KT M1/4SM -RA OVC001 08/08 A3005 RMK AO2 T00800076
Loading
Personal Weather Stations






























Interactive Weather Map
Tropical Storm Tracking
New forecast layout! Learn more

10-Day Weather Forecast

Advertisements
Track Severe Weather on mobile